Time;durP1;ratioP1;P1;durP2;ratioP2;P2;SDS_P1;SDS_P2;PMS_P1;PMS_P2;Temp;Humidity;BMP_temperature;BMP_pressure;BME280_temperature;BME280_humidity;BME280_pressure;Samples;Min_cycle;Max_cycle;Signal;HPM_P1;HPM_P2
2022/03/19 00:00:21;;;;;;;;;;;7.20;64.30;;;;;;2364256;53;20305;-76
2022/03/19 00:02:48;;;;;;;;;;;7.20;64.30;;;;;;2351017;57;20058;-76
2022/03/19 00:05:14;;;;;;;;;;;7.10;64.30;;;;;;2595746;53;20055;-76
2022/03/19 00:07:41;;;;;;;;;;;7.10;64.20;;;;;;2350784;57;20154;-75
2022/03/19 00:10:08;;;;;;;;;;;7.10;64.20;;;;;;2350672;57;20066;-75
2022/03/19 00:12:35;;;;;;;;;;;7.10;64.40;;;;;;2350975;57;20130;-75
2022/03/19 00:15:02;;;;;;;;;;;7.00;64.50;;;;;;2349253;57;20146;-76
2022/03/19 00:17:28;;;;;;;;;;;7.00;64.50;;;;;;2351107;57;20082;-76
2022/03/19 00:19:54;;;;;;;;;;;7.00;64.50;;;;;;2350765;57;20055;-76
2022/03/19 00:22:21;;;;;;;;;;;6.90;64.50;;;;;;2495634;52;20086;-75
2022/03/19 00:24:48;;;;;;;;;;;6.90;64.70;;;;;;2350935;57;20086;-75
2022/03/19 00:27:14;;;;;;;;;;;6.90;64.60;;;;;;2492074;53;20141;-76
2022/03/19 00:29:41;;;;;;;;;;;6.90;64.70;;;;;;2349616;57;20082;-76
2022/03/19 00:32:08;;;;;;;;;;;6.80;64.70;;;;;;2350354;57;20106;-76
2022/03/19 00:34:34;;;;;;;;;;;6.80;64.90;;;;;;2350792;57;20074;-76
2022/03/19 00:37:01;;;;;;;;;;;6.80;64.90;;;;;;2351024;57;20126;-75
2022/03/19 00:39:27;;;;;;;;;;;6.80;65.10;;;;;;2409730;53;20082;-76
2022/03/19 00:41:54;;;;;;;;;;;6.80;65.00;;;;;;2350722;57;20086;-75
2022/03/19 00:44:21;;;;;;;;;;;6.80;65.10;;;;;;2351118;57;20074;-76
2022/03/19 00:46:48;;;;;;;;;;;6.70;65.20;;;;;;2349895;57;20136;-76
2022/03/19 00:49:14;;;;;;;;;;;6.70;65.30;;;;;;2363817;53;20329;-76
2022/03/19 00:51:41;;;;;;;;;;;6.70;65.20;;;;;;2350870;57;20297;-75
2022/03/19 00:54:09;;;;;;;;;;;6.70;65.40;;;;;;2351180;57;20094;-75
2022/03/19 00:56:36;;;;;;;;;;;6.70;65.40;;;;;;2350653;57;20090;-76
2022/03/19 00:59:02;;;;;;;;;;;6.70;65.40;;;;;;2391920;53;20082;-76
2022/03/19 01:01:29;;;;;;;;;;;6.70;65.50;;;;;;2433538;53;20066;-75
2022/03/19 01:03:55;;;;;;;;;;;6.60;65.20;;;;;;2356249;53;20412;-75
2022/03/19 01:06:22;;;;;;;;;;;6.60;65.40;;;;;;2473503;53;20148;-75
2022/03/19 01:08:48;;;;;;;;;;;6.60;65.50;;;;;;2350351;57;20070;-75
2022/03/19 01:11:15;;;;;;;;;;;6.60;65.40;;;;;;2351068;57;20107;-75
2022/03/19 01:13:42;;;;;;;;;;;6.60;66.30;;;;;;2353892;53;20070;-75
2022/03/19 01:16:08;;;;;;;;;;;6.60;65.40;;;;;;2354170;53;20066;-75
2022/03/19 01:18:35;;;;;;;;;;;6.60;65.40;;;;;;2350678;57;20078;-75
2022/03/19 01:21:01;;;;;;;;;;;6.60;65.30;;;;;;2350966;57;20078;-75
2022/03/19 01:23:28;;;;;;;;;;;6.50;65.20;;;;;;2348954;57;20078;-75
2022/03/19 01:25:54;;;;;;;;;;;6.50;65.40;;;;;;2350999;57;20170;-76
2022/03/19 01:28:20;;;;;;;;;;;6.50;65.30;;;;;;2349138;57;20174;-75
2022/03/19 01:30:47;;;;;;;;;;;6.40;65.30;;;;;;2350516;57;20066;-75
2022/03/19 01:33:13;;;;;;;;;;;6.40;65.50;;;;;;2351087;57;20066;-75
2022/03/19 01:35:40;;;;;;;;;;;6.40;65.60;;;;;;2350825;57;20069;-75
2022/03/19 01:38:06;;;;;;;;;;;6.40;65.50;;;;;;2389796;53;20342;-75
2022/03/19 01:40:33;;;;;;;;;;;6.40;65.40;;;;;;2350712;57;20127;-76
2022/03/19 01:43:00;;;;;;;;;;;6.40;65.40;;;;;;2350110;57;20122;-76
2022/03/19 01:45:27;;;;;;;;;;;6.30;65.20;;;;;;2348192;57;20537;-75
2022/03/19 01:47:54;;;;;;;;;;;6.30;65.50;;;;;;2350783;57;20181;-76
2022/03/19 01:50:22;;;;;;;;;;;6.30;65.40;;;;;;2350799;57;20182;-76
2022/03/19 01:52:48;;;;;;;;;;;6.30;65.50;;;;;;2351188;57;20074;-76
2022/03/19 01:55:17;;;;;;;;;;;6.20;65.40;;;;;;2351042;57;20062;-76
2022/03/19 01:57:45;;;;;;;;;;;6.20;65.50;;;;;;2350767;57;20120;-76
2022/03/19 02:00:13;;;;;;;;;;;6.20;65.60;;;;;;2350646;57;20062;-75
2022/03/19 02:02:40;;;;;;;;;;;6.20;65.60;;;;;;2350604;57;20070;-76
2022/03/19 02:05:10;;;;;;;;;;;6.20;65.70;;;;;;2349426;57;20141;-76
2022/03/19 02:07:37;;;;;;;;;;;6.10;65.80;;;;;;2351167;57;20114;-76
2022/03/19 02:10:04;;;;;;;;;;;6.10;65.80;;;;;;2350474;57;20074;-76
2022/03/19 02:12:31;;;;;;;;;;;6.10;65.70;;;;;;2350396;57;20149;-76
2022/03/19 02:14:58;;;;;;;;;;;6.10;65.80;;;;;;2393935;53;20098;-75
2022/03/19 02:17:26;;;;;;;;;;;6.00;65.90;;;;;;2351012;57;20305;-76
2022/03/19 02:19:53;;;;;;;;;;;6.10;66.00;;;;;;2348652;57;20126;-76
2022/03/19 02:22:20;;;;;;;;;;;6.00;66.00;;;;;;2350917;57;20078;-76
2022/03/19 02:27:32;;;;;;;;;;;6.00;66.20;;;;;;2357891;53;20090;-77
2022/03/19 02:30:18;;;;;;;;;;;6.00;66.30;;;;;;2351513;53;20070;-76
2022/03/19 02:32:49;;;;;;;;;;;6.00;66.30;;;;;;2304425;58;20318;-75
2022/03/19 02:35:16;;;;;;;;;;;6.00;66.50;;;;;;2304249;58;20087;-75
2022/03/19 02:37:44;;;;;;;;;;;5.90;66.70;;;;;;2302201;58;20084;-75
2022/03/19 02:40:11;;;;;;;;;;;6.00;67.40;;;;;;2303476;58;20139;-75
2022/03/19 02:42:38;;;;;;;;;;;5.90;67.00;;;;;;2304112;58;20116;-75
2022/03/19 02:45:06;;;;;;;;;;;5.90;66.80;;;;;;2303787;58;20159;-75
2022/03/19 02:47:33;;;;;;;;;;;6.00;66.80;;;;;;2304374;58;20084;-75
2022/03/19 02:49:59;;;;;;;;;;;6.00;66.80;;;;;;2304131;58;20076;-75
2022/03/19 02:52:26;;;;;;;;;;;5.90;66.60;;;;;;2303484;58;20183;-75
2022/03/19 02:54:52;;;;;;;;;;;5.90;66.60;;;;;;2302342;58;20134;-75
2022/03/19 02:57:19;;;;;;;;;;;5.90;66.50;;;;;;2304320;58;20100;-75
2022/03/19 02:59:45;;;;;;;;;;;5.90;66.60;;;;;;2541198;54;20677;-75
2022/03/19 03:02:11;;;;;;;;;;;5.90;66.50;;;;;;2303885;58;20393;-75
2022/03/19 03:04:38;;;;;;;;;;;5.90;66.50;;;;;;2302983;58;20132;-75
2022/03/19 03:07:04;;;;;;;;;;;5.80;66.20;;;;;;2302864;58;20080;-75
2022/03/19 03:09:32;;;;;;;;;;;5.90;66.20;;;;;;2302966;58;20132;-75
2022/03/19 03:12:01;;;;;;;;;;;5.80;67.10;;;;;;2301877;58;20128;-75
2022/03/19 03:14:27;;;;;;;;;;;5.80;66.20;;;;;;2541447;54;20319;-75
2022/03/19 03:16:58;;;;;;;;;;;5.80;66.10;;;;;;2303872;58;20095;-75
2022/03/19 03:19:24;;;;;;;;;;;5.80;66.00;;;;;;2303573;58;20108;-75
2022/03/19 03:21:51;;;;;;;;;;;5.80;66.20;;;;;;2304573;58;20339;-75
2022/03/19 03:24:17;;;;;;;;;;;5.70;66.00;;;;;;2541276;54;20355;-75
2022/03/19 03:26:44;;;;;;;;;;;5.70;65.90;;;;;;2304594;58;20128;-74
2022/03/19 03:29:11;;;;;;;;;;;5.70;66.20;;;;;;2302607;58;20112;-75
2022/03/19 03:31:37;;;;;;;;;;;5.70;66.10;;;;;;2304255;58;20072;-75
2022/03/19 03:34:04;;;;;;;;;;;5.60;66.10;;;;;;2304060;58;20147;-75
2022/03/19 03:36:30;;;;;;;;;;;5.60;65.70;;;;;;2303995;58;20120;-75
2022/03/19 03:38:57;;;;;;;;;;;5.60;66.10;;;;;;2304141;58;20111;-75
2022/03/19 03:41:23;;;;;;;;;;;5.60;66.20;;;;;;2303814;58;20068;-75
2022/03/19 03:43:50;;;;;;;;;;;5.60;66.30;;;;;;2304378;58;20068;-75
2022/03/19 03:46:16;;;;;;;;;;;5.60;66.20;;;;;;2303431;58;20076;-75
2022/03/19 03:48:43;;;;;;;;;;;5.60;66.10;;;;;;2303918;58;20077;-74
2022/03/19 03:51:11;;;;;;;;;;;5.50;65.90;;;;;;2304085;58;20060;-75
2022/03/19 03:53:37;;;;;;;;;;;5.50;66.10;;;;;;2304125;58;20119;-74
2022/03/19 03:56:06;;;;;;;;;;;5.50;66.10;;;;;;2541393;54;20096;-75
2022/03/19 03:58:32;;;;;;;;;;;5.40;66.00;;;;;;2542161;54;20319;-75
2022/03/19 04:00:59;;;;;;;;;;;5.40;66.10;;;;;;2304138;58;20135;-75
2022/03/19 04:03:25;;;;;;;;;;;5.40;66.30;;;;;;2303290;58;20076;-75
2022/03/19 04:05:52;;;;;;;;;;;5.40;66.20;;;;;;2541226;54;20060;-75
2022/03/19 04:08:18;;;;;;;;;;;5.40;66.30;;;;;;2304314;58;20180;-75
2022/03/19 04:10:45;;;;;;;;;;;5.40;66.30;;;;;;2303653;58;20124;-75
2022/03/19 04:13:12;;;;;;;;;;;5.30;66.20;;;;;;2303823;58;20149;-75
2022/03/19 04:15:38;;;;;;;;;;;5.30;66.20;;;;;;2304078;58;20080;-75
2022/03/19 04:18:05;;;;;;;;;;;5.30;66.20;;;;;;2304385;58;20084;-75
2022/03/19 04:20:32;;;;;;;;;;;5.20;66.10;;;;;;2303054;58;20080;-75
2022/03/19 04:22:58;;;;;;;;;;;5.30;66.60;;;;;;2304228;58;20428;-75
2022/03/19 04:25:25;;;;;;;;;;;5.30;67.70;;;;;;2303924;58;20127;-75
2022/03/19 04:27:53;;;;;;;;;;;5.40;68.20;;;;;;2304499;58;20132;-75
2022/03/19 04:30:21;;;;;;;;;;;5.30;67.90;;;;;;2541272;54;20076;-75
2022/03/19 04:32:49;;;;;;;;;;;5.40;67.40;;;;;;2304469;58;20078;-75
2022/03/19 04:38:02;;;;;;;;;;;5.40;66.50;;;;;;2302370;58;20143;-75
2022/03/19 04:40:30;;;;;;;;;;;5.30;66.00;;;;;;2303914;58;20107;-75
2022/03/19 04:42:56;;;;;;;;;;;5.30;65.90;;;;;;2304413;58;20084;-75
2022/03/19 04:45:24;;;;;;;;;;;5.20;66.00;;;;;;2303625;58;20076;-75
2022/03/19 04:47:50;;;;;;;;;;;5.20;66.10;;;;;;2304544;58;20076;-75
2022/03/19 04:50:17;;;;;;;;;;;5.10;66.30;;;;;;2303876;58;20079;-75
2022/03/19 04:52:44;;;;;;;;;;;5.10;66.60;;;;;;2304221;58;20144;-75
2022/03/19 04:55:11;;;;;;;;;;;5.10;66.50;;;;;;2303555;58;20076;-75
2022/03/19 04:57:37;;;;;;;;;;;5.20;66.80;;;;;;2304323;58;20132;-75
2022/03/19 05:00:06;;;;;;;;;;;5.10;66.30;;;;;;2303736;58;20084;-75
2022/03/19 05:02:33;;;;;;;;;;;5.10;66.20;;;;;;2303703;58;20112;-75
2022/03/19 05:05:00;;;;;;;;;;;5.10;66.20;;;;;;2304234;58;20072;-75
2022/03/19 05:07:27;;;;;;;;;;;5.10;65.90;;;;;;2304246;58;20293;-75
2022/03/19 05:12:57;;;;;;;;;;;5.10;65.40;;;;;;2303834;54;20111;-75
2022/03/19 05:15:23;;;;;;;;;;;5.10;65.40;;;;;;2304318;58;20162;-75
2022/03/19 05:17:50;;;;;;;;;;;5.10;65.30;;;;;;2303380;58;20076;-75
2022/03/19 05:20:16;;;;;;;;;;;5.10;65.10;;;;;;2304111;58;20084;-75
2022/03/19 05:22:43;;;;;;;;;;;5.00;65.40;;;;;;2541679;54;20473;-75
2022/03/19 05:25:09;;;;;;;;;;;5.00;65.50;;;;;;2303509;58;20226;-75
2022/03/19 05:27:36;;;;;;;;;;;5.00;65.50;;;;;;2303482;58;20107;-76
2022/03/19 05:30:03;;;;;;;;;;;5.00;65.50;;;;;;2543082;54;20076;-75
2022/03/19 05:32:29;;;;;;;;;;;5.00;65.60;;;;;;2305314;58;20076;-76
2022/03/19 05:34:56;;;;;;;;;;;4.90;65.50;;;;;;2305269;58;20079;-76
2022/03/19 05:37:22;;;;;;;;;;;4.90;65.60;;;;;;2305499;58;20311;-75
2022/03/19 05:39:49;;;;;;;;;;;4.80;65.70;;;;;;2305067;58;20298;-76
2022/03/19 05:42:15;;;;;;;;;;;4.80;65.80;;;;;;2305279;58;20063;-74
2022/03/19 05:44:41;;;;;;;;;;;4.80;65.90;;;;;;2303902;58;20116;-74
2022/03/19 05:47:08;;;;;;;;;;;4.80;65.90;;;;;;2542698;54;20139;-74
2022/03/19 05:49:35;;;;;;;;;;;4.80;66.10;;;;;;2304721;58;20084;-74
2022/03/19 05:52:01;;;;;;;;;;;4.80;66.00;;;;;;2304862;58;20104;-74
2022/03/19 05:54:27;;;;;;;;;;;4.80;66.90;;;;;;2305060;58;20221;-73
2022/03/19 05:56:54;;;;;;;;;;;4.80;65.90;;;;;;2305293;58;20096;-74
2022/03/19 05:59:20;;;;;;;;;;;4.80;66.00;;;;;;2305089;58;20152;-73
2022/03/19 06:01:47;;;;;;;;;;;4.80;66.10;;;;;;2303649;58;20096;-73
2022/03/19 06:04:15;;;;;;;;;;;4.70;65.90;;;;;;2305087;58;20072;-73
2022/03/19 06:06:42;;;;;;;;;;;4.70;65.90;;;;;;2304868;58;20091;-73
2022/03/19 06:09:08;;;;;;;;;;;4.70;65.90;;;;;;2305017;58;20056;-73
2022/03/19 06:11:35;;;;;;;;;;;4.70;65.80;;;;;;2304883;58;20136;-73
2022/03/19 06:14:02;;;;;;;;;;;4.70;65.90;;;;;;2305401;58;20125;-73
2022/03/19 06:16:28;;;;;;;;;;;4.70;66.00;;;;;;2304350;58;20124;-73
2022/03/19 06:18:55;;;;;;;;;;;4.70;66.20;;;;;;2304931;58;20119;-73
2022/03/19 06:21:23;;;;;;;;;;;4.70;66.30;;;;;;2305566;58;20402;-74
2022/03/19 06:23:49;;;;;;;;;;;4.70;66.60;;;;;;2305293;58;20275;-74
2022/03/19 06:26:17;;;;;;;;;;;4.70;66.80;;;;;;2304816;58;20322;-74
2022/03/19 06:28:44;;;;;;;;;;;4.70;66.80;;;;;;2305125;58;20124;-73
2022/03/19 06:31:10;;;;;;;;;;;4.80;67.60;;;;;;2304891;58;20084;-73
2022/03/19 06:33:39;;;;;;;;;;;4.70;66.90;;;;;;2303397;58;20076;-74
2022/03/19 06:38:51;;;;;;;;;;;4.80;67.20;;;;;;2305198;58;20158;-74
2022/03/19 06:41:17;;;;;;;;;;;4.80;67.20;;;;;;2304458;58;20132;-73
2022/03/19 06:43:44;;;;;;;;;;;4.80;67.40;;;;;;2305571;58;20112;-74
2022/03/19 06:46:10;;;;;;;;;;;4.80;67.60;;;;;;2305906;58;20068;-74
2022/03/19 06:48:37;;;;;;;;;;;4.70;68.10;;;;;;2304926;58;20088;-73
2022/03/19 06:51:03;;;;;;;;;;;4.70;68.80;;;;;;2304944;58;20343;-74
2022/03/19 06:53:30;;;;;;;;;;;4.80;69.70;;;;;;2305708;58;20303;-74
2022/03/19 06:55:56;;;;;;;;;;;4.80;70.40;;;;;;2304959;58;20095;-74
2022/03/19 06:58:22;;;;;;;;;;;4.80;71.00;;;;;;2305339;58;20084;-73
2022/03/19 07:00:49;;;;;;;;;;;4.80;71.40;;;;;;2304980;58;20072;-74
2022/03/19 07:03:16;;;;;;;;;;;4.90;71.90;;;;;;2305493;58;20096;-73
2022/03/19 07:08:18;;;;;;;;;;;4.90;72.80;;;;;;2359722;57;20061;-73
2022/03/19 07:10:44;;;;;;;;;;;5.00;73.20;;;;;;2375718;56;20058;-73
2022/03/19 07:13:11;;;;;;;;;;;5.00;73.50;;;;;;2351036;57;20086;-74
2022/03/19 07:15:37;;;;;;;;;;;5.10;74.00;;;;;;2350855;57;20082;-73
2022/03/19 07:18:04;;;;;;;;;;;5.10;74.00;;;;;;2350821;57;20074;-73
2022/03/19 07:20:31;;;;;;;;;;;5.20;74.20;;;;;;2351101;57;20070;-73
2022/03/19 07:22:58;;;;;;;;;;;5.20;74.80;;;;;;2350975;57;20066;-73
2022/03/19 07:25:25;;;;;;;;;;;5.30;75.20;;;;;;2350415;57;20098;-73
2022/03/19 07:27:53;;;;;;;;;;;5.30;75.50;;;;;;2348562;57;20082;-73
2022/03/19 07:30:20;;;;;;;;;;;5.40;76.10;;;;;;2598504;52;20091;-72
2022/03/19 07:32:47;;;;;;;;;;;5.50;76.40;;;;;;2351143;57;20118;-72
2022/03/19 07:35:14;;;;;;;;;;;5.50;76.70;;;;;;2350938;57;20070;-73
2022/03/19 07:37:41;;;;;;;;;;;5.60;77.70;;;;;;2350329;57;20157;-74
2022/03/19 07:40:09;;;;;;;;;;;5.60;77.20;;;;;;2350520;57;20082;-74
2022/03/19 07:42:35;;;;;;;;;;;5.70;77.40;;;;;;2349988;57;20113;-74
2022/03/19 07:45:03;;;;;;;;;;;5.80;77.70;;;;;;2350205;57;20082;-73
2022/03/19 07:47:29;;;;;;;;;;;5.80;77.60;;;;;;2350849;57;20137;-74
2022/03/19 07:49:56;;;;;;;;;;;5.90;77.60;;;;;;2337853;57;20153;-74
2022/03/19 07:52:23;;;;;;;;;;;6.00;77.80;;;;;;2350871;57;20065;-74
2022/03/19 07:54:49;;;;;;;;;;;6.10;77.90;;;;;;2350740;57;20413;-73
2022/03/19 07:57:16;;;;;;;;;;;6.20;77.70;;;;;;2350102;57;20070;-74
2022/03/19 07:59:42;;;;;;;;;;;6.20;77.70;;;;;;2349940;57;20082;-75
2022/03/19 08:02:09;;;;;;;;;;;6.30;77.60;;;;;;2349977;57;20094;-74
2022/03/19 08:04:35;;;;;;;;;;;6.40;77.50;;;;;;2350531;57;20111;-74
2022/03/19 08:07:02;;;;;;;;;;;6.40;77.40;;;;;;2598626;53;20361;-74
2022/03/19 08:09:28;;;;;;;;;;;6.50;77.20;;;;;;2598016;53;20392;-75
2022/03/19 08:11:56;;;;;;;;;;;6.50;77.30;;;;;;2598702;52;20173;-74
2022/03/19 08:14:22;;;;;;;;;;;6.60;76.70;;;;;;2350813;57;20142;-74
2022/03/19 08:16:49;;;;;;;;;;;6.70;77.80;;;;;;2350095;57;20078;-74
2022/03/19 08:19:15;;;;;;;;;;;6.70;77.10;;;;;;2348419;57;20115;-75
2022/03/19 08:21:44;;;;;;;;;;;6.80;77.00;;;;;;2349844;57;20082;-73
2022/03/19 08:24:11;;;;;;;;;;;6.90;77.20;;;;;;2349293;57;20074;-73
2022/03/19 08:26:38;;;;;;;;;;;6.90;77.30;;;;;;2349863;57;20074;-74
2022/03/19 08:29:05;;;;;;;;;;;7.00;77.20;;;;;;2349600;57;20138;-74
2022/03/19 08:31:31;;;;;;;;;;;7.10;77.10;;;;;;2418126;52;20053;-75
2022/03/19 08:33:58;;;;;;;;;;;7.10;77.00;;;;;;2374419;56;20068;-75
2022/03/19 08:36:24;;;;;;;;;;;7.20;76.90;;;;;;2373547;56;20269;-75
2022/03/19 08:41:36;;;;;;;;;;;7.40;76.80;;;;;;2372809;52;20069;-75
2022/03/19 08:44:05;;;;;;;;;;;7.40;76.50;;;;;;2374748;56;20080;-75
2022/03/19 08:46:31;;;;;;;;;;;7.50;76.40;;;;;;2375101;56;20077;-75
2022/03/19 08:48:58;;;;;;;;;;;7.60;76.30;;;;;;2374564;56;20060;-74
2022/03/19 08:51:39;;;;;;;;;;;7.60;76.10;;;;;;2374749;56;20116;-74
2022/03/19 08:54:06;;;;;;;;;;;7.60;75.90;;;;;;2376845;52;20347;-75
2022/03/19 08:56:34;;;;;;;;;;;7.70;76.00;;;;;;2391597;52;20139;-75
2022/03/19 08:59:00;;;;;;;;;;;7.80;75.90;;;;;;2373467;56;20096;-74
2022/03/19 09:01:27;;;;;;;;;;;7.80;75.90;;;;;;2395985;52;20068;-74
2022/03/19 09:03:53;;;;;;;;;;;7.90;75.90;;;;;;2374747;56;20138;-75
2022/03/19 09:06:20;;;;;;;;;;;8.00;75.40;;;;;;2374610;56;20073;-74
2022/03/19 09:08:48;;;;;;;;;;;8.00;75.20;;;;;;2374642;52;20072;-74
2022/03/19 09:11:18;;;;;;;;;;;8.10;75.10;;;;;;2374834;56;20132;-75
2022/03/19 09:13:45;;;;;;;;;;;8.20;74.80;;;;;;2374816;56;20088;-75
2022/03/19 09:16:11;;;;;;;;;;;8.20;74.50;;;;;;2380415;52;20072;-75
2022/03/19 09:18:38;;;;;;;;;;;8.30;74.40;;;;;;2374912;56;20068;-74
2022/03/19 09:21:04;;;;;;;;;;;8.30;74.00;;;;;;2374484;56;20265;-74
2022/03/19 09:23:31;;;;;;;;;;;8.40;73.70;;;;;;2374901;56;20124;-75
2022/03/19 09:25:57;;;;;;;;;;;8.50;73.40;;;;;;2374630;56;20077;-74
2022/03/19 09:28:24;;;;;;;;;;;8.50;73.30;;;;;;2374753;56;20064;-74
2022/03/19 09:30:51;;;;;;;;;;;8.60;73.10;;;;;;2373261;56;20300;-74
2022/03/19 09:33:17;;;;;;;;;;;8.70;72.60;;;;;;2348958;57;20121;-74
2022/03/19 09:35:45;;;;;;;;;;;8.80;72.70;;;;;;2350403;57;20068;-75
2022/03/19 09:38:12;;;;;;;;;;;8.90;72.30;;;;;;2463881;53;20144;-75
2022/03/19 09:40:38;;;;;;;;;;;8.90;72.20;;;;;;2350211;57;20129;-75
2022/03/19 09:43:05;;;;;;;;;;;9.00;71.60;;;;;;2350704;57;20132;-74
2022/03/19 09:45:33;;;;;;;;;;;9.10;71.20;;;;;;2350544;57;20057;-74
2022/03/19 09:50:38;;;;;;;;;;;9.20;70.90;;;;;;2362816;53;20050;-75
2022/03/19 09:53:05;;;;;;;;;;;9.30;70.20;;;;;;2351546;56;20077;-74
2022/03/19 09:55:32;;;;;;;;;;;9.30;71.00;;;;;;2351384;57;20054;-75
2022/03/19 09:58:00;;;;;;;;;;;9.40;70.20;;;;;;2350749;57;20078;-75
2022/03/19 10:00:27;;;;;;;;;;;9.40;69.80;;;;;;2350865;57;20050;-75
2022/03/19 10:02:56;;;;;;;;;;;9.50;69.80;;;;;;2349950;57;20077;-73
2022/03/19 10:10:53;;;;;;;;;;;9.60;68.20;;;;;;2484151;53;20193;-75
2022/03/19 10:13:19;;;;;;;;;;;9.60;67.90;;;;;;2349878;57;20133;-74
2022/03/19 10:15:46;;;;;;;;;;;9.70;67.30;;;;;;2378644;53;20113;-74
2022/03/19 10:18:12;;;;;;;;;;;9.70;66.80;;;;;;2347856;57;20125;-74
2022/03/19 10:20:39;;;;;;;;;;;9.80;67.00;;;;;;2350006;57;20083;-75
2022/03/19 10:23:05;;;;;;;;;;;9.90;66.60;;;;;;2350728;57;20144;-74
2022/03/19 10:25:32;;;;;;;;;;;9.90;66.60;;;;;;2351274;57;20062;-74
2022/03/19 10:28:00;;;;;;;;;;;10.00;66.70;;;;;;2351191;57;20140;-74
2022/03/19 10:30:34;;;;;;;;;;;10.00;66.00;;;;;;2350660;57;20066;-74
2022/03/19 10:33:00;;;;;;;;;;;10.10;66.20;;;;;;2351106;57;20055;-74
2022/03/19 10:35:28;;;;;;;;;;;10.10;65.90;;;;;;2430417;53;20492;-74
2022/03/19 10:37:55;;;;;;;;;;;10.20;65.70;;;;;;2360415;53;20067;-74
2022/03/19 10:40:21;;;;;;;;;;;10.20;65.20;;;;;;2350468;57;20090;-74
2022/03/19 10:42:51;;;;;;;;;;;10.20;64.10;;;;;;2350118;57;20129;-75
2022/03/19 10:45:21;;;;;;;;;;;10.30;64.00;;;;;;2351262;57;20273;-75
2022/03/19 10:47:48;;;;;;;;;;;10.40;64.10;;;;;;2350921;57;20117;-75
2022/03/19 10:50:19;;;;;;;;;;;10.40;64.30;;;;;;2350565;57;20157;-74
2022/03/19 10:52:46;;;;;;;;;;;10.50;63.70;;;;;;2350690;55;20062;-74
2022/03/19 10:55:12;;;;;;;;;;;10.50;63.10;;;;;;2523878;53;20122;-74
2022/03/19 10:57:39;;;;;;;;;;;10.60;62.80;;;;;;2449850;53;20137;-74
2022/03/19 11:00:06;;;;;;;;;;;10.60;62.00;;;;;;2358306;53;20110;-72
2022/03/19 11:02:33;;;;;;;;;;;10.60;61.30;;;;;;2367262;53;20118;-75
2022/03/19 11:05:00;;;;;;;;;;;10.70;61.60;;;;;;2346923;57;20122;-74
2022/03/19 11:07:29;;;;;;;;;;;10.80;61.90;;;;;;2349994;57;20067;-75
2022/03/19 11:09:56;;;;;;;;;;;10.80;62.40;;;;;;2349992;57;20130;-75
2022/03/19 11:12:25;;;;;;;;;;;10.90;62.20;;;;;;2349281;57;20054;-75
2022/03/19 11:14:52;;;;;;;;;;;10.90;62.30;;;;;;2349219;57;20093;-73
2022/03/19 11:17:27;;;;;;;;;;;11.00;62.30;;;;;;2349800;57;20272;-75
2022/03/19 11:19:55;;;;;;;;;;;11.10;60.90;;;;;;2349759;57;20759;-73
2022/03/19 11:22:22;;;;;;;;;;;11.10;61.00;;;;;;2349540;57;20081;-72
2022/03/19 11:25:06;;;;;;;;;;;11.10;61.20;;;;;;2357374;53;20074;-73
2022/03/19 11:27:35;;;;;;;;;;;11.20;60.20;;;;;;2349841;57;20141;-74
2022/03/19 11:30:03;;;;;;;;;;;11.20;60.40;;;;;;2349929;57;20066;-72
2022/03/19 11:32:30;;;;;;;;;;;11.30;60.10;;;;;;2349957;57;20134;-75
2022/03/19 11:34:59;;;;;;;;;;;11.30;60.10;;;;;;2350047;57;20129;-72
2022/03/19 11:37:56;;;;;;;;;;;11.30;59.60;;;;;;2350075;57;20078;-75
2022/03/19 11:40:30;;;;;;;;;;;11.40;60.00;;;;;;2349312;57;20054;-75
2022/03/19 11:42:57;;;;;;;;;;;11.50;59.30;;;;;;2350196;57;20074;-73
2022/03/19 11:45:24;;;;;;;;;;;11.50;59.40;;;;;;2350104;57;20153;-75
2022/03/19 11:47:50;;;;;;;;;;;11.50;59.40;;;;;;2445990;53;20082;-73
2022/03/19 11:50:18;;;;;;;;;;;11.50;59.00;;;;;;2349421;57;20338;-75
2022/03/19 11:53:05;;;;;;;;;;;11.50;58.90;;;;;;2349829;57;20150;-74
2022/03/19 11:55:36;;;;;;;;;;;11.50;59.10;;;;;;2350342;57;20078;-72
2022/03/19 11:58:06;;;;;;;;;;;11.60;59.00;;;;;;2349975;57;20073;-73
2022/03/19 12:00:35;;;;;;;;;;;11.60;59.30;;;;;;2349575;57;20130;-75
2022/03/19 12:03:02;;;;;;;;;;;11.70;59.40;;;;;;2349650;57;20131;-75
2022/03/19 12:05:29;;;;;;;;;;;11.70;59.00;;;;;;2349906;57;20086;-75
2022/03/19 12:07:57;;;;;;;;;;;11.70;59.00;;;;;;2398650;53;20082;-75
2022/03/19 12:10:24;;;;;;;;;;;11.70;58.80;;;;;;2349790;57;20066;-75
2022/03/19 12:12:51;;;;;;;;;;;11.80;58.60;;;;;;2393334;52;20077;-72
2022/03/19 12:15:36;;;;;;;;;;;11.80;58.90;;;;;;2349436;57;20118;-73
2022/03/19 12:18:22;;;;;;;;;;;11.80;59.20;;;;;;2350353;57;20122;-75
2022/03/19 12:20:49;;;;;;;;;;;11.90;59.40;;;;;;2349735;57;20106;-73
2022/03/19 12:23:15;;;;;;;;;;;11.90;59.70;;;;;;2350356;57;20144;-73
2022/03/19 12:25:43;;;;;;;;;;;12.00;59.40;;;;;;2349942;57;20067;-73
2022/03/19 12:28:15;;;;;;;;;;;12.10;59.00;;;;;;2350230;57;20106;-73
2022/03/19 12:30:41;;;;;;;;;;;12.10;58.60;;;;;;2347673;57;20149;-74
2022/03/19 12:33:08;;;;;;;;;;;12.10;58.60;;;;;;2349518;57;20102;-75
2022/03/19 12:35:39;;;;;;;;;;;12.10;57.70;;;;;;2349926;57;20137;-73
2022/03/19 12:38:05;;;;;;;;;;;12.10;57.90;;;;;;2349758;57;20369;-73
2022/03/19 12:43:19;;;;;;;;;;;12.10;57.70;;;;;;2349902;57;20312;-73
2022/03/19 12:45:48;;;;;;;;;;;12.10;57.30;;;;;;2377143;53;20082;-75
2022/03/19 12:48:16;;;;;;;;;;;12.20;57.00;;;;;;2349807;57;20078;-75
2022/03/19 12:50:47;;;;;;;;;;;12.20;57.30;;;;;;2349390;57;20133;-75
2022/03/19 12:53:14;;;;;;;;;;;12.30;58.30;;;;;;2405566;53;20301;-75
2022/03/19 12:55:40;;;;;;;;;;;12.40;58.30;;;;;;2350049;57;20074;-74
2022/03/19 12:58:07;;;;;;;;;;;12.50;57.90;;;;;;2383537;53;20050;-75
2022/03/19 13:00:34;;;;;;;;;;;12.50;57.50;;;;;;2366750;53;20369;-75
2022/03/19 13:03:00;;;;;;;;;;;12.60;57.20;;;;;;2349850;57;20113;-75
2022/03/19 13:05:27;;;;;;;;;;;12.60;56.70;;;;;;2391187;53;20071;-75
2022/03/19 13:08:07;;;;;;;;;;;12.60;57.00;;;;;;2349813;57;20150;-75
2022/03/19 13:10:41;;;;;;;;;;;12.50;57.10;;;;;;2349429;57;20078;-73
2022/03/19 13:13:08;;;;;;;;;;;12.50;57.10;;;;;;2349541;57;20082;-73
2022/03/19 13:15:35;;;;;;;;;;;12.40;57.50;;;;;;2350185;57;20066;-73
2022/03/19 13:18:01;;;;;;;;;;;12.40;57.50;;;;;;2349699;57;20086;-73
2022/03/19 13:20:28;;;;;;;;;;;12.40;57.50;;;;;;2349564;57;20063;-73
2022/03/19 13:23:01;;;;;;;;;;;12.40;57.50;;;;;;2349990;57;20062;-73
2022/03/19 13:25:29;;;;;;;;;;;12.40;57.70;;;;;;2349825;57;20118;-73
2022/03/19 13:28:00;;;;;;;;;;;12.40;57.80;;;;;;2349856;57;20148;-75
2022/03/19 13:30:27;;;;;;;;;;;12.40;58.00;;;;;;2349412;57;20125;-75
2022/03/19 13:32:57;;;;;;;;;;;12.40;57.60;;;;;;2384064;52;20134;-75
2022/03/19 13:35:49;;;;;;;;;;;12.40;57.30;;;;;;2350022;57;20062;-74
2022/03/19 13:38:16;;;;;;;;;;;12.40;57.30;;;;;;2347779;57;20067;-74
2022/03/19 13:40:43;;;;;;;;;;;12.40;57.70;;;;;;2349610;57;20131;-74
2022/03/19 13:43:10;;;;;;;;;;;12.50;58.00;;;;;;2404502;53;20070;-74
2022/03/19 13:45:36;;;;;;;;;;;12.50;57.80;;;;;;2388011;53;20118;-74
2022/03/19 13:48:04;;;;;;;;;;;12.50;57.40;;;;;;2348294;57;20404;-74
2022/03/19 13:50:31;;;;;;;;;;;12.50;57.30;;;;;;2349896;57;20130;-74
2022/03/19 13:52:59;;;;;;;;;;;12.50;57.10;;;;;;2349983;57;20086;-74
2022/03/19 13:55:36;;;;;;;;;;;12.50;57.00;;;;;;2350216;57;20074;-74
2022/03/19 13:58:04;;;;;;;;;;;12.50;57.20;;;;;;2349279;57;20317;-74
2022/03/19 14:00:31;;;;;;;;;;;12.50;57.20;;;;;;2348350;57;20071;-74
2022/03/19 14:03:01;;;;;;;;;;;12.50;56.90;;;;;;2385259;52;20150;-74
2022/03/19 14:05:28;;;;;;;;;;;12.50;56.60;;;;;;2369021;53;20119;-74
2022/03/19 14:07:56;;;;;;;;;;;12.50;56.70;;;;;;2349936;57;20142;-76
2022/03/19 14:10:28;;;;;;;;;;;12.40;55.70;;;;;;2349477;57;20101;-74
2022/03/19 14:13:02;;;;;;;;;;;12.40;56.10;;;;;;2349824;57;20192;-74
2022/03/19 14:15:35;;;;;;;;;;;12.40;55.80;;;;;;2349929;57;20067;-74
2022/03/19 14:18:01;;;;;;;;;;;12.40;55.90;;;;;;2349759;57;20110;-74
2022/03/19 14:20:28;;;;;;;;;;;12.40;56.20;;;;;;2349356;57;20087;-74
2022/03/19 14:22:54;;;;;;;;;;;12.40;56.10;;;;;;2349963;57;20074;-74
2022/03/19 14:25:21;;;;;;;;;;;12.40;55.90;;;;;;2349926;57;20149;-74
2022/03/19 14:27:48;;;;;;;;;;;12.30;55.80;;;;;;2419125;53;20130;-74
2022/03/19 14:30:15;;;;;;;;;;;12.30;56.80;;;;;;2349238;57;20074;-74
2022/03/19 14:32:41;;;;;;;;;;;12.30;56.40;;;;;;2518170;52;20069;-75
2022/03/19 14:35:26;;;;;;;;;;;12.30;56.50;;;;;;2351462;57;20085;-76
2022/03/19 14:37:52;;;;;;;;;;;12.30;56.60;;;;;;2351909;57;20077;-76
2022/03/19 14:40:18;;;;;;;;;;;12.20;56.90;;;;;;2351396;57;20121;-76
2022/03/19 14:42:45;;;;;;;;;;;12.20;56.70;;;;;;2598546;52;20073;-75
2022/03/19 14:45:12;;;;;;;;;;;12.20;56.40;;;;;;2350511;57;20271;-75
2022/03/19 14:47:38;;;;;;;;;;;12.20;56.90;;;;;;2350314;57;20135;-75
2022/03/19 14:50:07;;;;;;;;;;;12.10;56.80;;;;;;2350086;57;20121;-75
2022/03/19 14:52:33;;;;;;;;;;;12.10;56.80;;;;;;2350341;57;20316;-76
2022/03/19 14:55:02;;;;;;;;;;;12.00;57.20;;;;;;2350213;57;20382;-75